Nyk Deneb — 3EOF8 — position and weather

sailwx.info

Track history (hours):
 
Tides and Currents Weather Stations Pressure Air Temp Water Temp Dewpoint Dewpoint Depression Visibility Wind Speed Wind Dir Waves Ship Positions

Nyk Deneb

Last reported at 2014-Oct-21 06:09 UTC. Time now 2014-Nov-01 02:30 UTC.
Position N 30°50' E 123°36'.
Warning: this ship's position is 10 days out of date.

Length 294 m; draft 11.8 m.

Type: Ship (hazmat cat A). MMSI: 355717000.

Date/timePositionNaut miles runAvg speedWind from/ knotsBaromVisibWave heightAir tempDewpointWater temp
2014-Oct-21 06:09N 30°50' E 123°36'1419.3
2014-Oct-21 05:25N 30°42' E 123°23'1618.9
2014-Oct-21 04:33N 30°36' E 123°05'2019.7
2014-Oct-21 03:33N 30°33' E 122°42'1918.5
2014-Oct-21 02:33N 30°32' E 122°21'1111.1
2014-Oct-21 01:32N 30°35' E 122°08'0 0.0
2014-Oct-20 08:09N 30°35' E 122°08'813.2
2014-Oct-20 07:33N 30°33' E 122°18'1414.5
2014-Oct-20 06:33N 30°31' E 122°34'1717.4
2014-Oct-20 05:34N 30°20' E 122°49'1919.4
2014-Oct-20 04:33N 30°00' E 122°49'1919.1
2014-Oct-20 03:34N 29°43' E 122°40'1817.6
2014-Oct-20 02:34N 29°45' E 122°20'1010.1
2014-Oct-20 01:33N 29°50' E 122°09'9 4.2
2014-Oct-19 23:30N 29°46' E 122°00'0 0.0
2014-Oct-19 21:30N 29°46' E 122°00'0 0.0
2014-Oct-19 20:33N 29°46' E 122°00'0 0.0
2014-Oct-19 19:32N 29°46' E 122°00'0 0.0
2014-Oct-19 18:33N 29°46' E 122°00'0 0.0
2014-Oct-19 17:33N 29°46' E 122°00'0 0.0
2014-Oct-19 16:33N 29°46' E 122°00'0 0.0
2014-Oct-19 15:33N 29°46' E 122°00'0 0.0
2014-Oct-19 14:33N 29°46' E 122°00'0 0.0
2014-Oct-19 13:33N 29°46' E 122°00'0 0.0
2014-Oct-19 12:33N 29°46' E 122°00'2 1.6
2014-Oct-19 11:32N 29°47' E 122°02'1010.3
2014-Oct-19 10:34N 29°50' E 122°13'9 9.4
2014-Oct-19 09:33N 29°44' E 122°22'1111.2
2014-Oct-19 08:33N 29°41' E 122°34'9 9.0
2014-Oct-19 07:33N 29°43' E 122°44'9 8.6
2014-Oct-19 06:31N 29°48' E 122°53'1 1.0
2014-Oct-19 05:20N 29°49' E 122°54'185 7.2
2014-Oct-18 03:32N 32°52' E 123°20'1413.3
2014-Oct-18 02:31N 33°05' E 123°21'1313.9
2014-Oct-18 01:33N 33°19' E 123°22'1616.5
2014-Oct-18 00:34N 33°35' E 123°20'1413.4
2014-Oct-17 23:31N 33°49' E 123°19'7812.7
2014-Oct-17 17:22N 34°47' E 122°15'1412.9
2014-Oct-17 16:18N 34°56' E 122°02'2512.7
2014-Oct-17 14:20N 35°12' E 121°39'  
Track history (hours):
 
Tides and Currents Weather Stations Pressure Air Temp Water Temp Dewpoint Dewpoint Depression Visibility Wind Speed Wind Dir Waves Ship Positions

Nyk Deneb

Last reported at 2014-Oct-21 06:09 UTC. Time now 2014-Nov-01 02:30 UTC.
Position N 30°50' E 123°36'.
Warning: this ship's position is 10 days out of date.

Length 294 m; draft 11.8 m.

Type: Ship (hazmat cat A). MMSI: 355717000.

Date/timePositionNaut miles runAvg speedWind from/ knotsBaromVisibWave heightAir tempDewpointWater temp
2014-Oct-21 06:09N 30°50' E 123°36'1419.3
2014-Oct-21 05:25N 30°42' E 123°23'1618.9
2014-Oct-21 04:33N 30°36' E 123°05'2019.7
2014-Oct-21 03:33N 30°33' E 122°42'1918.5
2014-Oct-21 02:33N 30°32' E 122°21'1111.1
2014-Oct-21 01:32N 30°35' E 122°08'0 0.0
2014-Oct-20 08:09N 30°35' E 122°08'813.2
2014-Oct-20 07:33N 30°33' E 122°18'1414.5
2014-Oct-20 06:33N 30°31' E 122°34'1717.4
2014-Oct-20 05:34N 30°20' E 122°49'1919.4
2014-Oct-20 04:33N 30°00' E 122°49'1919.1
2014-Oct-20 03:34N 29°43' E 122°40'1817.6
2014-Oct-20 02:34N 29°45' E 122°20'1010.1
2014-Oct-20 01:33N 29°50' E 122°09'9 4.2
2014-Oct-19 23:30N 29°46' E 122°00'0 0.0
2014-Oct-19 21:30N 29°46' E 122°00'0 0.0
2014-Oct-19 20:33N 29°46' E 122°00'0 0.0
2014-Oct-19 19:32N 29°46' E 122°00'0 0.0
2014-Oct-19 18:33N 29°46' E 122°00'0 0.0
2014-Oct-19 17:33N 29°46' E 122°00'0 0.0
2014-Oct-19 16:33N 29°46' E 122°00'0 0.0
2014-Oct-19 15:33N 29°46' E 122°00'0 0.0
2014-Oct-19 14:33N 29°46' E 122°00'0 0.0
2014-Oct-19 13:33N 29°46' E 122°00'0 0.0
2014-Oct-19 12:33N 29°46' E 122°00'2 1.6
2014-Oct-19 11:32N 29°47' E 122°02'1010.3
2014-Oct-19 10:34N 29°50' E 122°13'9 9.4
2014-Oct-19 09:33N 29°44' E 122°22'1111.2
2014-Oct-19 08:33N 29°41' E 122°34'9 9.0
2014-Oct-19 07:33N 29°43' E 122°44'9 8.6
2014-Oct-19 06:31N 29°48' E 122°53'1 1.0
2014-Oct-19 05:20N 29°49' E 122°54'185 7.2
2014-Oct-18 03:32N 32°52' E 123°20'1413.3
2014-Oct-18 02:31N 33°05' E 123°21'1313.9
2014-Oct-18 01:33N 33°19' E 123°22'1616.5
2014-Oct-18 00:34N 33°35' E 123°20'1413.4
2014-Oct-17 23:31N 33°49' E 123°19'7812.7
2014-Oct-17 17:22N 34°47' E 122°15'1412.9
2014-Oct-17 16:18N 34°56' E 122°02'2512.7
2014-Oct-17 14:20N 35°12' E 121°39'  

Dump ship's entire track history